sensor_id;sensor_type;location;lat;lon;timestamp;temperature;humidity
38090;DHT22;23904;52.322;10.232;2023-04-03T00:01:28;2.60;99.90
38090;DHT22;23904;52.322;10.232;2023-04-03T00:03:54;2.60;99.90
38090;DHT22;23904;52.322;10.232;2023-04-03T00:06:20;2.60;99.90
38090;DHT22;23904;52.322;10.232;2023-04-03T00:08:45;2.60;99.90
38090;DHT22;23904;52.322;10.232;2023-04-03T00:11:11;2.50;99.90
38090;DHT22;23904;52.322;10.232;2023-04-03T00:13:38;2.50;99.90
38090;DHT22;23904;52.322;10.232;2023-04-03T00:16:05;2.50;99.90
38090;DHT22;23904;52.322;10.232;2023-04-03T00:18:31;2.50;99.90
38090;DHT22;23904;52.322;10.232;2023-04-03T00:20:57;2.40;99.90
38090;DHT22;23904;52.322;10.232;2023-04-03T00:23:23;2.40;99.90
38090;DHT22;23904;52.322;10.232;2023-04-03T00:25:49;2.40;99.90
38090;DHT22;23904;52.322;10.232;2023-04-03T00:28:15;2.40;99.90
38090;DHT22;23904;52.322;10.232;2023-04-03T00:30:41;2.40;99.90
38090;DHT22;23904;52.322;10.232;2023-04-03T00:33:07;2.30;99.90
38090;DHT22;23904;52.322;10.232;2023-04-03T00:35:34;2.30;99.90
38090;DHT22;23904;52.322;10.232;2023-04-03T00:38:00;2.20;99.90
38090;DHT22;23904;52.322;10.232;2023-04-03T00:40:27;2.20;99.90
38090;DHT22;23904;52.322;10.232;2023-04-03T00:42:58;2.20;99.90
38090;DHT22;23904;52.322;10.232;2023-04-03T00:45:33;2.30;99.90
38090;DHT22;23904;52.322;10.232;2023-04-03T00:48:03;2.30;99.90
38090;DHT22;23904;52.322;10.232;2023-04-03T00:50:31;2.20;99.90
38090;DHT22;23904;52.322;10.232;2023-04-03T00:52:57;2.20;99.90
38090;DHT22;23904;52.322;10.232;2023-04-03T00:55:23;2.20;99.90
38090;DHT22;23904;52.322;10.232;2023-04-03T00:57:49;2.10;99.90
38090;DHT22;23904;52.322;10.232;2023-04-03T01:00:17;2.20;99.90
38090;DHT22;23904;52.322;10.232;2023-04-03T01:02:44;2.10;99.90
38090;DHT22;23904;52.322;10.232;2023-04-03T01:05:10;2.00;99.90
38090;DHT22;23904;52.322;10.232;2023-04-03T01:07:37;2.00;99.90
38090;DHT22;23904;52.322;10.232;2023-04-03T01:10:07;2.00;99.90
38090;DHT22;23904;52.322;10.232;2023-04-03T01:12:39;2.00;99.90
38090;DHT22;23904;52.322;10.232;2023-04-03T01:15:11;2.00;99.90
38090;DHT22;23904;52.322;10.232;2023-04-03T01:17:47;2.00;99.90
38090;DHT22;23904;52.322;10.232;2023-04-03T01:22:59;1.90;99.90
38090;DHT22;23904;52.322;10.232;2023-04-03T01:25:27;1.90;99.90
38090;DHT22;23904;52.322;10.232;2023-04-03T01:27:53;1.90;99.90
38090;DHT22;23904;52.322;10.232;2023-04-03T01:30:21;1.80;99.90
38090;DHT22;23904;52.322;10.232;2023-04-03T01:32:50;1.70;99.90
38090;DHT22;23904;52.322;10.232;2023-04-03T01:35:15;1.80;99.90
38090;DHT22;23904;52.322;10.232;2023-04-03T01:37:41;1.70;99.90
38090;DHT22;23904;52.322;10.232;2023-04-03T01:40:07;1.70;99.90
38090;DHT22;23904;52.322;10.232;2023-04-03T01:42:33;1.70;99.90
38090;DHT22;23904;52.322;10.232;2023-04-03T01:44:59;1.70;99.90
38090;DHT22;23904;52.322;10.232;2023-04-03T01:47:24;1.70;99.90
38090;DHT22;23904;52.322;10.232;2023-04-03T01:49:50;1.60;99.90
38090;DHT22;23904;52.322;10.232;2023-04-03T01:52:15;1.70;99.90
38090;DHT22;23904;52.322;10.232;2023-04-03T01:54:41;1.70;99.90
38090;DHT22;23904;52.322;10.232;2023-04-03T01:57:06;1.60;99.90
38090;DHT22;23904;52.322;10.232;2023-04-03T01:59:32;1.60;99.90
38090;DHT22;23904;52.322;10.232;2023-04-03T02:01:57;1.60;99.90
38090;DHT22;23904;52.322;10.232;2023-04-03T02:04:23;1.50;99.90
38090;DHT22;23904;52.322;10.232;2023-04-03T02:06:49;1.30;99.90
38090;DHT22;23904;52.322;10.232;2023-04-03T02:09:14;1.30;99.90
38090;DHT22;23904;52.322;10.232;2023-04-03T02:11:40;1.40;99.90
38090;DHT22;23904;52.322;10.232;2023-04-03T02:14:06;1.40;99.90
38090;DHT22;23904;52.322;10.232;2023-04-03T02:16:32;1.40;99.90
38090;DHT22;23904;52.322;10.232;2023-04-03T02:18:57;1.40;99.90
38090;DHT22;23904;52.322;10.232;2023-04-03T02:21:23;1.40;99.90
38090;DHT22;23904;52.322;10.232;2023-04-03T02:23:49;1.40;99.90
38090;DHT22;23904;52.322;10.232;2023-04-03T02:26:15;1.40;99.90
38090;DHT22;23904;52.322;10.232;2023-04-03T02:28:41;1.40;99.90
38090;DHT22;23904;52.322;10.232;2023-04-03T02:31:08;1.40;99.90
38090;DHT22;23904;52.322;10.232;2023-04-03T02:33:36;1.40;99.90
38090;DHT22;23904;52.322;10.232;2023-04-03T02:36:04;1.40;99.90
38090;DHT22;23904;52.322;10.232;2023-04-03T02:38:31;1.30;99.90
38090;DHT22;23904;52.322;10.232;2023-04-03T02:41:06;1.30;99.90
38090;DHT22;23904;52.322;10.232;2023-04-03T02:43:33;1.30;99.90
38090;DHT22;23904;52.322;10.232;2023-04-03T02:45:59;1.30;99.90
38090;DHT22;23904;52.322;10.232;2023-04-03T02:48:25;1.30;99.90
38090;DHT22;23904;52.322;10.232;2023-04-03T02:50:51;1.30;99.90
38090;DHT22;23904;52.322;10.232;2023-04-03T02:53:17;1.30;99.90
38090;DHT22;23904;52.322;10.232;2023-04-03T02:55:44;1.30;99.90
38090;DHT22;23904;52.322;10.232;2023-04-03T02:58:10;1.30;99.90
38090;DHT22;23904;52.322;10.232;2023-04-03T03:00:36;1.20;99.90
38090;DHT22;23904;52.322;10.232;2023-04-03T03:03:02;1.20;99.90
38090;DHT22;23904;52.322;10.232;2023-04-03T03:05:29;1.20;99.90
38090;DHT22;23904;52.322;10.232;2023-04-03T03:07:55;1.20;99.90
38090;DHT22;23904;52.322;10.232;2023-04-03T03:10:21;1.20;99.90
38090;DHT22;23904;52.322;10.232;2023-04-03T03:12:47;1.20;99.90
38090;DHT22;23904;52.322;10.232;2023-04-03T03:15:13;1.20;99.90
38090;DHT22;23904;52.322;10.232;2023-04-03T03:17:40;1.20;99.90
38090;DHT22;23904;52.322;10.232;2023-04-03T03:20:07;1.10;99.90
38090;DHT22;23904;52.322;10.232;2023-04-03T03:22:33;1.10;99.90
38090;DHT22;23904;52.322;10.232;2023-04-03T03:25:02;1.10;99.90
38090;DHT22;23904;52.322;10.232;2023-04-03T03:27:28;1.10;99.90
38090;DHT22;23904;52.322;10.232;2023-04-03T03:29:54;1.10;99.90
38090;DHT22;23904;52.322;10.232;2023-04-03T03:32:19;1.10;99.90
38090;DHT22;23904;52.322;10.232;2023-04-03T03:34:45;1.00;99.90
38090;DHT22;23904;52.322;10.232;2023-04-03T03:37:11;1.00;99.90
38090;DHT22;23904;52.322;10.232;2023-04-03T03:39:37;1.00;99.90
38090;DHT22;23904;52.322;10.232;2023-04-03T03:42:05;1.00;99.90
38090;DHT22;23904;52.322;10.232;2023-04-03T03:44:31;1.00;99.90
38090;DHT22;23904;52.322;10.232;2023-04-03T03:46:56;0.90;99.90
38090;DHT22;23904;52.322;10.232;2023-04-03T03:49:22;0.90;99.90
38090;DHT22;23904;52.322;10.232;2023-04-03T03:51:47;0.90;99.90
38090;DHT22;23904;52.322;10.232;2023-04-03T03:54:13;0.90;99.90
38090;DHT22;23904;52.322;10.232;2023-04-03T03:56:39;0.80;99.90
38090;DHT22;23904;52.322;10.232;2023-04-03T03:59:05;0.80;99.90
38090;DHT22;23904;52.322;10.232;2023-04-03T04:01:31;0.90;99.90
38090;DHT22;23904;52.322;10.232;2023-04-03T04:03:57;0.80;99.90
38090;DHT22;23904;52.322;10.232;2023-04-03T04:06:23;0.90;99.90
38090;DHT22;23904;52.322;10.232;2023-04-03T04:08:49;0.90;99.90
38090;DHT22;23904;52.322;10.232;2023-04-03T04:11:14;0.90;99.90
38090;DHT22;23904;52.322;10.232;2023-04-03T04:13:40;0.80;99.90
38090;DHT22;23904;52.322;10.232;2023-04-03T04:16:06;0.80;99.90
38090;DHT22;23904;52.322;10.232;2023-04-03T04:18:33;0.80;99.90
38090;DHT22;23904;52.322;10.232;2023-04-03T04:20:59;0.80;99.90
38090;DHT22;23904;52.322;10.232;2023-04-03T04:23:25;0.80;99.90
38090;DHT22;23904;52.322;10.232;2023-04-03T04:25:50;0.70;99.90
38090;DHT22;23904;52.322;10.232;2023-04-03T04:28:17;0.80;99.90
38090;DHT22;23904;52.322;10.232;2023-04-03T04:30:43;0.80;99.90
38090;DHT22;23904;52.322;10.232;2023-04-03T04:33:09;0.70;99.90
38090;DHT22;23904;52.322;10.232;2023-04-03T04:35:35;0.70;99.90
38090;DHT22;23904;52.322;10.232;2023-04-03T04:38:01;0.70;99.90
38090;DHT22;23904;52.322;10.232;2023-04-03T04:40:27;0.70;99.90
38090;DHT22;23904;52.322;10.232;2023-04-03T04:42:53;0.80;99.90
38090;DHT22;23904;52.322;10.232;2023-04-03T04:45:19;0.80;99.90
38090;DHT22;23904;52.322;10.232;2023-04-03T04:47:45;0.70;99.90
38090;DHT22;23904;52.322;10.232;2023-04-03T04:50:12;0.70;99.90
38090;DHT22;23904;52.322;10.232;2023-04-03T04:52:38;0.70;99.90
38090;DHT22;23904;52.322;10.232;2023-04-03T04:55:04;0.60;99.90
38090;DHT22;23904;52.322;10.232;2023-04-03T04:57:30;0.70;99.90
38090;DHT22;23904;52.322;10.232;2023-04-03T04:59:56;0.60;99.90
38090;DHT22;23904;52.322;10.232;2023-04-03T05:02:21;0.70;99.90
38090;DHT22;23904;52.322;10.232;2023-04-03T05:04:47;0.60;99.90
38090;DHT22;23904;52.322;10.232;2023-04-03T05:07:15;0.60;99.90
38090;DHT22;23904;52.322;10.232;2023-04-03T05:09:41;0.60;99.90
38090;DHT22;23904;52.322;10.232;2023-04-03T05:12:07;0.70;99.90
38090;DHT22;23904;52.322;10.232;2023-04-03T05:14:33;0.70;99.90
38090;DHT22;23904;52.322;10.232;2023-04-03T05:16:58;0.70;99.90
38090;DHT22;23904;52.322;10.232;2023-04-03T05:19:24;0.80;99.90
38090;DHT22;23904;52.322;10.232;2023-04-03T05:21:49;0.80;99.90
38090;DHT22;23904;52.322;10.232;2023-04-03T05:24:16;0.80;99.90
38090;DHT22;23904;52.322;10.232;2023-04-03T05:26:42;0.80;99.90
38090;DHT22;23904;52.322;10.232;2023-04-03T05:29:08;0.80;99.90
38090;DHT22;23904;52.322;10.232;2023-04-03T05:31:34;0.80;99.90
38090;DHT22;23904;52.322;10.232;2023-04-03T05:34:00;0.90;99.90
38090;DHT22;23904;52.322;10.232;2023-04-03T05:36:25;0.90;99.90
38090;DHT22;23904;52.322;10.232;2023-04-03T05:38:52;0.90;99.90
38090;DHT22;23904;52.322;10.232;2023-04-03T05:41:18;1.00;99.90
38090;DHT22;23904;52.322;10.232;2023-04-03T05:43:44;1.00;99.90
38090;DHT22;23904;52.322;10.232;2023-04-03T05:46:11;1.10;99.90
38090;DHT22;23904;52.322;10.232;2023-04-03T05:48:38;1.00;99.90
38090;DHT22;23904;52.322;10.232;2023-04-03T05:51:04;1.10;99.90
38090;DHT22;23904;52.322;10.232;2023-04-03T05:53:34;1.10;99.90
38090;DHT22;23904;52.322;10.232;2023-04-03T05:56:01;1.10;99.90
38090;DHT22;23904;52.322;10.232;2023-04-03T05:58:27;1.10;99.90
38090;DHT22;23904;52.322;10.232;2023-04-03T06:00:53;1.10;99.90
38090;DHT22;23904;52.322;10.232;2023-04-03T06:03:19;1.10;99.90
38090;DHT22;23904;52.322;10.232;2023-04-03T06:05:44;1.20;99.90
38090;DHT22;23904;52.322;10.232;2023-04-03T06:08:11;1.20;99.90
38090;DHT22;23904;52.322;10.232;2023-04-03T06:10:38;1.30;99.90
38090;DHT22;23904;52.322;10.232;2023-04-03T06:13:04;1.40;99.90
38090;DHT22;23904;52.322;10.232;2023-04-03T06:15:29;1.50;99.90
38090;DHT22;23904;52.322;10.232;2023-04-03T06:17:55;1.50;99.90
38090;DHT22;23904;52.322;10.232;2023-04-03T06:20:21;1.50;99.90
38090;DHT22;23904;52.322;10.232;2023-04-03T06:22:47;1.50;99.90
38090;DHT22;23904;52.322;10.232;2023-04-03T06:25:13;1.60;99.90
38090;DHT22;23904;52.322;10.232;2023-04-03T06:27:40;1.60;99.90
38090;DHT22;23904;52.322;10.232;2023-04-03T06:30:06;1.60;99.90
38090;DHT22;23904;52.322;10.232;2023-04-03T06:32:32;1.60;99.90
38090;DHT22;23904;52.322;10.232;2023-04-03T06:34:58;1.70;99.90
38090;DHT22;23904;52.322;10.232;2023-04-03T06:37:24;1.70;99.90
38090;DHT22;23904;52.322;10.232;2023-04-03T06:39:51;1.80;99.90
38090;DHT22;23904;52.322;10.232;2023-04-03T06:42:17;1.90;99.90
38090;DHT22;23904;52.322;10.232;2023-04-03T06:44:43;2.00;99.90
38090;DHT22;23904;52.322;10.232;2023-04-03T06:47:12;2.00;99.90
38090;DHT22;23904;52.322;10.232;2023-04-03T06:49:39;2.10;99.90
38090;DHT22;23904;52.322;10.232;2023-04-03T06:52:05;2.20;99.90
38090;DHT22;23904;52.322;10.232;2023-04-03T06:54:31;2.30;99.90
38090;DHT22;23904;52.322;10.232;2023-04-03T06:56:57;2.30;99.90
38090;DHT22;23904;52.322;10.232;2023-04-03T06:59:23;2.40;99.90
38090;DHT22;23904;52.322;10.232;2023-04-03T07:01:48;2.50;99.90
38090;DHT22;23904;52.322;10.232;2023-04-03T07:04:14;2.50;99.90
38090;DHT22;23904;52.322;10.232;2023-04-03T07:06:41;2.60;99.90
38090;DHT22;23904;52.322;10.232;2023-04-03T07:09:09;2.80;99.90
38090;DHT22;23904;52.322;10.232;2023-04-03T07:11:35;2.90;99.90
38090;DHT22;23904;52.322;10.232;2023-04-03T07:14:02;2.90;99.90
38090;DHT22;23904;52.322;10.232;2023-04-03T07:16:28;2.90;99.90
38090;DHT22;23904;52.322;10.232;2023-04-03T07:18:56;3.10;99.90
38090;DHT22;23904;52.322;10.232;2023-04-03T07:21:22;3.20;99.90
38090;DHT22;23904;52.322;10.232;2023-04-03T07:23:49;3.30;99.90
38090;DHT22;23904;52.322;10.232;2023-04-03T07:26:14;3.30;99.90
38090;DHT22;23904;52.322;10.232;2023-04-03T07:28:40;3.40;99.90
38090;DHT22;23904;52.322;10.232;2023-04-03T07:31:10;3.50;99.90
38090;DHT22;23904;52.322;10.232;2023-04-03T07:33:39;3.60;99.90
38090;DHT22;23904;52.322;10.232;2023-04-03T07:36:06;3.70;99.90
38090;DHT22;23904;52.322;10.232;2023-04-03T07:38:35;3.80;99.90
38090;DHT22;23904;52.322;10.232;2023-04-03T07:41:02;3.90;99.90
38090;DHT22;23904;52.322;10.232;2023-04-03T07:43:28;4.00;99.90
38090;DHT22;23904;52.322;10.232;2023-04-03T07:45:54;4.20;99.90
38090;DHT22;23904;52.322;10.232;2023-04-03T07:48:24;4.30;99.90
38090;DHT22;23904;52.322;10.232;2023-04-03T07:50:51;4.50;99.90
38090;DHT22;23904;52.322;10.232;2023-04-03T07:53:17;4.50;99.90
38090;DHT22;23904;52.322;10.232;2023-04-03T07:55:45;4.60;99.90
38090;DHT22;23904;52.322;10.232;2023-04-03T07:58:13;4.70;99.90
38090;DHT22;23904;52.322;10.232;2023-04-03T08:00:40;4.90;99.90
38090;DHT22;23904;52.322;10.232;2023-04-03T08:03:07;5.30;99.90
38090;DHT22;23904;52.322;10.232;2023-04-03T08:05:37;5.80;99.90
38090;DHT22;23904;52.322;10.232;2023-04-03T08:08:04;6.50;99.90
38090;DHT22;23904;52.322;10.232;2023-04-03T08:10:31;7.20;99.90
38090;DHT22;23904;52.322;10.232;2023-04-03T08:12:56;8.00;99.50
38090;DHT22;23904;52.322;10.232;2023-04-03T08:15:22;9.30;97.20
38090;DHT22;23904;52.322;10.232;2023-04-03T08:17:48;10.50;93.70
38090;DHT22;23904;52.322;10.232;2023-04-03T08:20:14;10.40;93.00
38090;DHT22;23904;52.322;10.232;2023-04-03T08:22:40;10.50;92.20
38090;DHT22;23904;52.322;10.232;2023-04-03T08:25:06;11.60;89.60
38090;DHT22;23904;52.322;10.232;2023-04-03T08:27:32;12.50;85.70
38090;DHT22;23904;52.322;10.232;2023-04-03T08:29:58;13.60;79.30
38090;DHT22;23904;52.322;10.232;2023-04-03T08:32:24;14.50;72.50
38090;DHT22;23904;52.322;10.232;2023-04-03T08:34:50;14.80;70.00
38090;DHT22;23904;52.322;10.232;2023-04-03T08:37:15;15.20;68.30
38090;DHT22;23904;52.322;10.232;2023-04-03T08:39:42;15.90;66.00
38090;DHT22;23904;52.322;10.232;2023-04-03T08:42:16;15.40;63.20
38090;DHT22;23904;52.322;10.232;2023-04-03T08:48:22;15.70;62.70
38090;DHT22;23904;52.322;10.232;2023-04-03T08:51:02;17.70;57.40
38090;DHT22;23904;52.322;10.232;2023-04-03T08:53:33;17.70;56.50
38090;DHT22;23904;52.322;10.232;2023-04-03T08:56:08;16.70;56.10
38090;DHT22;23904;52.322;10.232;2023-04-03T09:01:30;18.00;53.70
38090;DHT22;23904;52.322;10.232;2023-04-03T09:04:03;18.80;51.90
38090;DHT22;23904;52.322;10.232;2023-04-03T09:06:33;18.60;50.90
38090;DHT22;23904;52.322;10.232;2023-04-03T09:12:27;18.10;49.30
38090;DHT22;23904;52.322;10.232;2023-04-03T09:20:44;19.20;47.00
38090;DHT22;23904;52.322;10.232;2023-04-03T09:23:29;20.00;44.50
38090;DHT22;23904;52.322;10.232;2023-04-03T09:26:33;19.40;43.40
38090;DHT22;23904;52.322;10.232;2023-04-03T09:29:05;18.50;44.50
38090;DHT22;23904;52.322;10.232;2023-04-03T09:31:39;17.00;45.90
38090;DHT22;23904;52.322;10.232;2023-04-03T09:34:20;16.10;48.30
38090;DHT22;23904;52.322;10.232;2023-04-03T09:36:51;17.20;46.20
38090;DHT22;23904;52.322;10.232;2023-04-03T09:39:20;16.90;45.40
38090;DHT22;23904;52.322;10.232;2023-04-03T09:44:37;18.00;43.60
38090;DHT22;23904;52.322;10.232;2023-04-03T09:47:26;17.00;44.90
38090;DHT22;23904;52.322;10.232;2023-04-03T09:52:45;16.30;44.90
38090;DHT22;23904;52.322;10.232;2023-04-03T09:55:16;15.40;45.70
38090;DHT22;23904;52.322;10.232;2023-04-03T09:57:53;14.00;47.80
38090;DHT22;23904;52.322;10.232;2023-04-03T10:00:37;13.30;51.20
38090;DHT22;23904;52.322;10.232;2023-04-03T10:03:05;14.20;50.00
38090;DHT22;23904;52.322;10.232;2023-04-03T10:05:39;14.50;48.70
38090;DHT22;23904;52.322;10.232;2023-04-03T10:10:41;13.60;49.70
38090;DHT22;23904;52.322;10.232;2023-04-03T10:13:14;12.10;52.30
38090;DHT22;23904;52.322;10.232;2023-04-03T10:15:59;12.20;54.30
38090;DHT22;23904;52.322;10.232;2023-04-03T10:21:55;13.40;51.80
38090;DHT22;23904;52.322;10.232;2023-04-03T10:24:49;14.70;51.50
38090;DHT22;23904;52.322;10.232;2023-04-03T10:27:32;15.30;49.10
38090;DHT22;23904;52.322;10.232;2023-04-03T10:33:29;18.00;44.30
38090;DHT22;23904;52.322;10.232;2023-04-03T10:40:15;19.10;41.40
38090;DHT22;23904;52.322;10.232;2023-04-03T10:42:54;18.00;42.00
38090;DHT22;23904;52.322;10.232;2023-04-03T10:48:44;17.30;44.00
38090;DHT22;23904;52.322;10.232;2023-04-03T10:53:56;19.50;43.10
38090;DHT22;23904;52.322;10.232;2023-04-03T10:56:48;20.00;40.90
38090;DHT22;23904;52.322;10.232;2023-04-03T10:59:30;19.00;40.70
38090;DHT22;23904;52.322;10.232;2023-04-03T11:02:01;17.50;43.70
38090;DHT22;23904;52.322;10.232;2023-04-03T11:04:35;15.50;45.80
38090;DHT22;23904;52.322;10.232;2023-04-03T11:07:10;14.40;49.20
38090;DHT22;23904;52.322;10.232;2023-04-03T11:09:42;14.60;49.10
38090;DHT22;23904;52.322;10.232;2023-04-03T11:12:26;15.20;47.90
38090;DHT22;23904;52.322;10.232;2023-04-03T11:15:02;15.50;46.70
38090;DHT22;23904;52.322;10.232;2023-04-03T11:17:41;14.20;49.00
38090;DHT22;23904;52.322;10.232;2023-04-03T11:22:58;12.00;52.80
38090;DHT22;23904;52.322;10.232;2023-04-03T11:25:29;11.40;55.00
38090;DHT22;23904;52.322;10.232;2023-04-03T11:27:59;13.50;52.90
38090;DHT22;23904;52.322;10.232;2023-04-03T11:33:31;13.60;50.80
38090;DHT22;23904;52.322;10.232;2023-04-03T11:36:29;12.60;51.10
38090;DHT22;23904;52.322;10.232;2023-04-03T11:38:59;11.20;55.50
38090;DHT22;23904;52.322;10.232;2023-04-03T11:41:31;10.90;55.80
38090;DHT22;23904;52.322;10.232;2023-04-03T11:47:02;10.40;57.10
38090;DHT22;23904;52.322;10.232;2023-04-03T11:49:52;12.00;56.90
38090;DHT22;23904;52.322;10.232;2023-04-03T12:16:20;10.80;57.70
38090;DHT22;23904;52.322;10.232;2023-04-03T12:29:38;10.90;58.30
38090;DHT22;23904;52.322;10.232;2023-04-03T12:35:18;11.90;55.30
38090;DHT22;23904;52.322;10.232;2023-04-03T12:38:37;12.30;51.40
38090;DHT22;23904;52.322;10.232;2023-04-03T12:41:36;12.10;50.30
38090;DHT22;23904;52.322;10.232;2023-04-03T12:44:27;11.60;50.50
38090;DHT22;23904;52.322;10.232;2023-04-03T12:49:50;10.90;53.50
38090;DHT22;23904;52.322;10.232;2023-04-03T12:55:00;10.80;55.40
38090;DHT22;23904;52.322;10.232;2023-04-03T12:57:30;10.80;55.80
38090;DHT22;23904;52.322;10.232;2023-04-03T12:59:58;11.00;55.80
38090;DHT22;23904;52.322;10.232;2023-04-03T13:02:29;10.90;55.40
38090;DHT22;23904;52.322;10.232;2023-04-03T13:05:08;10.60;55.70
38090;DHT22;23904;52.322;10.232;2023-04-03T13:07:36;10.50;55.30
38090;DHT22;23904;52.322;10.232;2023-04-03T13:12:34;11.70;55.10
38090;DHT22;23904;52.322;10.232;2023-04-03T13:15:12;12.50;52.40
38090;DHT22;23904;52.322;10.232;2023-04-03T13:17:59;13.40;49.00
38090;DHT22;23904;52.322;10.232;2023-04-03T13:20:30;12.80;50.50
38090;DHT22;23904;52.322;10.232;2023-04-03T13:23:04;12.30;52.20
38090;DHT22;23904;52.322;10.232;2023-04-03T13:25:34;11.50;53.10
38090;DHT22;23904;52.322;10.232;2023-04-03T13:28:03;10.90;55.20
38090;DHT22;23904;52.322;10.232;2023-04-03T13:30:35;10.80;57.30
38090;DHT22;23904;52.322;10.232;2023-04-03T13:33:05;10.70;57.60
38090;DHT22;23904;52.322;10.232;2023-04-03T13:35:45;10.30;58.70
38090;DHT22;23904;52.322;10.232;2023-04-03T13:40:55;10.20;58.30
38090;DHT22;23904;52.322;10.232;2023-04-03T13:43:27;10.20;57.30
38090;DHT22;23904;52.322;10.232;2023-04-03T13:48:24;9.90;56.50
38090;DHT22;23904;52.322;10.232;2023-04-03T13:51:21;9.90;57.40
38090;DHT22;23904;52.322;10.232;2023-04-03T13:53:58;10.10;57.20
38090;DHT22;23904;52.322;10.232;2023-04-03T13:56:36;10.10;57.40
38090;DHT22;23904;52.322;10.232;2023-04-03T14:01:48;9.60;58.50
38090;DHT22;23904;52.322;10.232;2023-04-03T14:04:26;9.70;59.80
38090;DHT22;23904;52.322;10.232;2023-04-03T14:06:55;9.70;58.70
38090;DHT22;23904;52.322;10.232;2023-04-03T14:09:22;9.60;58.70
38090;DHT22;23904;52.322;10.232;2023-04-03T14:11:50;9.60;60.00
38090;DHT22;23904;52.322;10.232;2023-04-03T14:14:26;9.70;57.70
38090;DHT22;23904;52.322;10.232;2023-04-03T14:16:56;9.80;57.60
38090;DHT22;23904;52.322;10.232;2023-04-03T14:19:33;9.90;58.60
38090;DHT22;23904;52.322;10.232;2023-04-03T14:22:07;10.10;55.50
38090;DHT22;23904;52.322;10.232;2023-04-03T14:24:38;9.90;56.50
38090;DHT22;23904;52.322;10.232;2023-04-03T14:27:14;9.60;58.40
38090;DHT22;23904;52.322;10.232;2023-04-03T14:29:41;9.90;59.10
38090;DHT22;23904;52.322;10.232;2023-04-03T14:32:07;10.00;62.70
38090;DHT22;23904;52.322;10.232;2023-04-03T14:34:33;10.10;57.10
38090;DHT22;23904;52.322;10.232;2023-04-03T14:36:58;9.90;58.60
38090;DHT22;23904;52.322;10.232;2023-04-03T14:39:24;9.80;58.60
38090;DHT22;23904;52.322;10.232;2023-04-03T14:41:50;9.70;58.70
38090;DHT22;23904;52.322;10.232;2023-04-03T14:44:16;9.60;59.40
38090;DHT22;23904;52.322;10.232;2023-04-03T14:46:43;9.60;60.00
38090;DHT22;23904;52.322;10.232;2023-04-03T14:49:15;9.40;59.80
38090;DHT22;23904;52.322;10.232;2023-04-03T14:51:42;9.60;59.40
38090;DHT22;23904;52.322;10.232;2023-04-03T14:54:14;9.70;60.00
38090;DHT22;23904;52.322;10.232;2023-04-03T14:56:42;9.90;57.50
38090;DHT22;23904;52.322;10.232;2023-04-03T14:59:12;9.90;58.20
38090;DHT22;23904;52.322;10.232;2023-04-03T15:01:39;9.80;57.70
38090;DHT22;23904;52.322;10.232;2023-04-03T15:04:19;9.60;57.30
38090;DHT22;23904;52.322;10.232;2023-04-03T15:06:47;9.40;56.70
38090;DHT22;23904;52.322;10.232;2023-04-03T15:09:39;9.00;57.50
38090;DHT22;23904;52.322;10.232;2023-04-03T15:12:05;8.80;58.50
38090;DHT22;23904;52.322;10.232;2023-04-03T15:14:32;8.70;59.10
38090;DHT22;23904;52.322;10.232;2023-04-03T15:16:58;8.90;60.50
38090;DHT22;23904;52.322;10.232;2023-04-03T15:19:24;9.20;58.50
38090;DHT22;23904;52.322;10.232;2023-04-03T15:21:50;9.40;58.70
38090;DHT22;23904;52.322;10.232;2023-04-03T15:24:16;9.20;60.30
38090;DHT22;23904;52.322;10.232;2023-04-03T15:26:41;9.30;58.70
38090;DHT22;23904;52.322;10.232;2023-04-03T15:29:07;9.20;58.90
38090;DHT22;23904;52.322;10.232;2023-04-03T15:31:33;8.90;60.30
38090;DHT22;23904;52.322;10.232;2023-04-03T15:33:59;8.80;62.50
38090;DHT22;23904;52.322;10.232;2023-04-03T15:36:24;8.80;62.50
38090;DHT22;23904;52.322;10.232;2023-04-03T15:38:50;8.90;61.60
38090;DHT22;23904;52.322;10.232;2023-04-03T15:41:16;9.00;61.50
38090;DHT22;23904;52.322;10.232;2023-04-03T15:43:41;8.90;61.30
38090;DHT22;23904;52.322;10.232;2023-04-03T15:46:07;8.90;60.60
38090;DHT22;23904;52.322;10.232;2023-04-03T15:48:33;8.80;61.80
38090;DHT22;23904;52.322;10.232;2023-04-03T15:50:59;8.70;63.90
38090;DHT22;23904;52.322;10.232;2023-04-03T15:53:25;8.70;61.40
38090;DHT22;23904;52.322;10.232;2023-04-03T15:55:51;8.80;61.60
38090;DHT22;23904;52.322;10.232;2023-04-03T15:58:17;8.50;61.60
38090;DHT22;23904;52.322;10.232;2023-04-03T16:00:42;8.40;62.90
38090;DHT22;23904;52.322;10.232;2023-04-03T16:03:15;8.20;63.40
38090;DHT22;23904;52.322;10.232;2023-04-03T16:05:42;8.20;63.80
38090;DHT22;23904;52.322;10.232;2023-04-03T16:08:08;8.30;64.60
38090;DHT22;23904;52.322;10.232;2023-04-03T16:10:35;8.40;63.90
38090;DHT22;23904;52.322;10.232;2023-04-03T16:13:02;8.50;63.80
38090;DHT22;23904;52.322;10.232;2023-04-03T16:15:29;8.50;64.10
38090;DHT22;23904;52.322;10.232;2023-04-03T16:17:57;8.60;64.60
38090;DHT22;23904;52.322;10.232;2023-04-03T16:20:24;8.60;64.10
38090;DHT22;23904;52.322;10.232;2023-04-03T16:22:49;8.60;63.80
38090;DHT22;23904;52.322;10.232;2023-04-03T16:25:17;8.60;62.70
38090;DHT22;23904;52.322;10.232;2023-04-03T16:27:43;8.50;62.80
38090;DHT22;23904;52.322;10.232;2023-04-03T16:30:10;8.30;64.80
38090;DHT22;23904;52.322;10.232;2023-04-03T16:32:38;8.20;65.60
38090;DHT22;23904;52.322;10.232;2023-04-03T16:35:04;8.10;66.10
38090;DHT22;23904;52.322;10.232;2023-04-03T16:37:30;8.10;65.20
38090;DHT22;23904;52.322;10.232;2023-04-03T16:39:56;8.00;66.40
38090;DHT22;23904;52.322;10.232;2023-04-03T16:42:23;7.70;67.30
38090;DHT22;23904;52.322;10.232;2023-04-03T16:44:50;7.70;68.30
38090;DHT22;23904;52.322;10.232;2023-04-03T16:47:15;7.80;67.30
38090;DHT22;23904;52.322;10.232;2023-04-03T16:49:44;7.80;67.70
38090;DHT22;23904;52.322;10.232;2023-04-03T16:52:11;7.60;67.80
38090;DHT22;23904;52.322;10.232;2023-04-03T16:54:36;7.60;69.00
38090;DHT22;23904;52.322;10.232;2023-04-03T16:57:02;7.60;68.40
38090;DHT22;23904;52.322;10.232;2023-04-03T16:59:28;7.70;68.10
38090;DHT22;23904;52.322;10.232;2023-04-03T17:01:53;7.60;68.70
38090;DHT22;23904;52.322;10.232;2023-04-03T17:04:19;7.80;68.80
38090;DHT22;23904;52.322;10.232;2023-04-03T17:06:45;7.80;66.40
38090;DHT22;23904;52.322;10.232;2023-04-03T17:09:10;7.80;65.70
38090;DHT22;23904;52.322;10.232;2023-04-03T17:11:37;7.90;66.40
38090;DHT22;23904;52.322;10.232;2023-04-03T17:14:03;7.90;66.20
38090;DHT22;23904;52.322;10.232;2023-04-03T17:16:30;7.80;65.10
38090;DHT22;23904;52.322;10.232;2023-04-03T17:18:58;7.70;66.30
38090;DHT22;23904;52.322;10.232;2023-04-03T17:21:25;7.80;65.20
38090;DHT22;23904;52.322;10.232;2023-04-03T17:23:55;7.70;67.10